.
WxDataArchive / Data Records for 2009-01-18
2009-01-17 January 2009 2009-01-19

Data Records for Sunday, 18 January 2009

Time	Temp	Chill	HIndex	Humid	Dewpt	 Wind 	HiWind	WindDir	Rain 	Barom 
-----	----	-----	------	-----	-----	------	------	-------	-----	----- 
00:00	23.9	23.9	23.9	85	20.1	3	11	270	0.00	29.769 
00:05	23.9	18.7	23.9	85	20.1	4	12	270	0.00	29.769 
00:10	23.8	23.8	23.8	85	20.0	3	6	270	0.00	29.767 
00:15	23.8	23.8	23.8	85	20.0	3	9	248	0.00	29.771 
00:20	23.8	23.8	23.8	84	19.7	3	9	248	0.00	29.770 
00:25	23.9	18.7	23.9	84	19.8	4	9	270	0.00	29.773 
00:30	23.8	23.8	23.8	84	19.7	2	4	248	0.00	29.773 
00:35	23.9	23.9	23.9	84	19.8	3	7	270	0.00	29.773 
00:40	23.9	23.9	23.9	84	19.8	3	6	270	0.00	29.770 
00:45	23.9	23.9	23.9	84	19.8	3	7	270	0.00	29.768 
00:50	23.9	23.9	23.9	84	19.8	3	7	248	0.00	29.769 
00:55	23.9	23.9	23.9	84	19.8	3	7	248	0.00	29.767 
01:00	23.9	23.9	23.9	84	19.8	2	8	248	0.00	29.769 
01:05	23.9	23.9	23.9	84	19.8	2	6	248	0.00	29.769 
01:10	23.9	23.9	23.9	84	19.8	2	7	248	0.00	29.769 
01:15	23.9	23.9	23.9	84	19.8	2	6	248	0.00	29.770 
01:20	23.9	23.9	23.9	84	19.8	2	5	248	0.00	29.771 
01:25	23.9	23.9	23.9	84	19.8	2	5	248	0.00	29.771 
01:30	23.9	23.9	23.9	84	19.8	2	5	248	0.00	29.770 
01:35	23.9	23.9	23.9	84	19.8	2	4	248	0.00	29.770 
01:40	23.9	23.9	23.9	84	19.8	2	5	270	0.00	29.771 
01:45	23.9	23.9	23.9	83	19.5	2	3	248	0.00	29.771 
01:50	23.8	23.8	23.8	83	19.4	1	3	248	0.00	29.772 
01:55	23.8	23.8	23.8	84	19.7	1	6	248	0.00	29.773 
02:00	23.8	23.8	23.8	84	19.7	2	4	248	0.00	29.771 
02:05	23.8	23.8	23.8	84	19.7	2	4	248	0.00	29.770 
02:10	23.6	23.6	23.6	85	19.8	1	6	248	0.00	29.770 
02:15	23.6	23.6	23.6	86	20.0	1	4	248	0.00	29.771 
02:20	23.6	23.6	23.6	86	20.0	1	3	292	0.00	29.770 
02:25	23.5	23.5	23.5	87	20.2	1	3	248	0.00	29.769 
02:30	23.5	23.5	23.5	87	20.2	1	3	248	0.00	29.771 
02:35	23.5	23.5	23.5	87	20.2	1	5	248	0.00	29.771 
02:40	23.5	23.5	23.5	88	20.5	1	3	248	0.00	29.770 
02:45	23.5	23.5	23.5	88	20.5	1	3	248	0.00	29.769 
02:50	23.3	23.3	23.3	88	20.3	1	4	248	0.00	29.770 
02:55	23.3	23.3	23.3	88	20.3	1	5	248	0.00	29.770 
03:00	23.3	23.3	23.3	88	20.3	1	5	248	0.00	29.768 
03:05	23.3	23.3	23.3	88	20.3	1	3	248	0.00	29.768 
03:10	23.2	23.2	23.2	88	20.2	1	4	248	0.00	29.768 
03:15	23.2	23.2	23.2	88	20.2	1	4	248	0.00	29.765 
03:20	23.2	23.2	23.2	88	20.2	1	3	248	0.00	29.763 
03:25	23.2	23.2	23.2	88	20.2	1	4	248	0.00	29.759 
03:30	23.0	23.0	23.0	88	20.0	1	3	248	0.00	29.759 
03:35	23.0	23.0	23.0	88	20.0	1	3	248	0.00	29.759 
03:40	23.0	23.0	23.0	88	20.0	1	3	315	0.00	29.760 
03:45	23.0	23.0	23.0	88	20.0	1	3	270	0.00	29.761 
03:50	22.9	22.9	22.9	88	19.9	1	3	270	0.00	29.762 
03:55	22.9	22.9	22.9	88	19.9	1	3	270	0.00	29.764 
04:00	22.7	22.7	22.7	88	19.7	1	5	270	0.00	29.764 
04:05	22.5	22.5	22.5	88	19.5	1	4	270	0.00	29.761 
04:10	22.2	22.2	22.2	88	19.2	2	7	270	0.00	29.767 
04:15	21.6	21.6	21.6	87	18.3	3	10	338	0.00	29.770 
04:20	21.0	21.0	21.0	86	17.5	2	5	338	0.00	29.770 
04:25	20.3	20.3	20.3	84	16.3	3	7	315	0.00	29.767 
04:30	20.2	20.2	20.2	82	15.6	3	5	315	0.00	29.772 
04:35	20.0	20.0	20.0	80	14.8	2	5	338	0.00	29.771 
04:40	20.0	20.0	20.0	79	14.6	2	4	338	0.00	29.773 
04:45	20.0	20.0	20.0	79	14.6	1	7	315	0.00	29.773 
04:50	20.0	20.0	20.0	78	14.3	2	4	248	0.00	29.774 
04:55	20.0	20.0	20.0	77	14.0	2	5	292	0.00	29.775 
05:00	20.0	20.0	20.0	77	14.0	1	5	315	0.00	29.776 
05:05	20.0	20.0	20.0	77	14.0	2	6	338	0.00	29.775 
05:10	19.9	19.9	19.9	76	13.6	2	5	315	0.00	29.781 
05:15	19.7	19.7	19.7	76	13.4	3	7	270	0.00	29.785 
05:20	19.5	19.5	19.5	75	12.9	3	6	248	0.00	29.787 
05:25	19.4	19.4	19.4	75	12.8	1	3	315	0.00	29.788 
05:30	19.4	19.4	19.4	75	12.8	2	7	315	0.00	29.790 
05:35	19.2	19.2	19.2	74	12.3	2	6	315	0.00	29.791 
05:40	19.1	19.1	19.1	73	11.9	2	9	315	0.00	29.792 
05:45	19.1	19.1	19.1	74	12.2	2	4	315	0.00	29.792 
05:50	19.1	19.1	19.1	74	12.2	1	5	315	0.00	29.792 
05:55	18.9	18.9	18.9	75	12.3	1	5	338	0.00	29.794 
06:00	18.8	18.8	18.8	73	11.6	2	5	315	0.00	29.793 
06:05	18.6	18.6	18.6	73	11.4	2	5	338	0.00	29.791 
06:10	18.4	18.4	18.4	75	11.8	1	3	315	0.00	29.789 
06:15	18.4	18.4	18.4	76	12.1	2	5	248	0.00	29.789 
06:20	18.3	18.3	18.3	77	12.3	1	4	248	0.00	29.791 
06:25	18.1	18.1	18.1	78	12.4	1	4	270	0.00	29.790 
06:30	18.1	18.1	18.1	78	12.4	2	4	270	0.00	29.791 
06:35	18.0	18.0	18.0	78	12.3	2	4	248	0.00	29.792 
06:40	17.8	17.8	17.8	79	12.4	2	4	270	0.00	29.793 
06:45	17.8	17.8	17.8	78	12.1	2	4	270	0.00	29.794 
06:50	17.7	17.7	17.7	78	12.0	2	4	270	0.00	29.796 
06:55	17.5	17.5	17.5	78	11.8	2	4	270	0.00	29.795 
07:00	17.5	17.5	17.5	78	11.8	2	4	292	0.00	29.797 
07:05	17.5	17.5	17.5	77	11.5	2	3	248	0.00	29.799 
07:10	17.3	17.3	17.3	77	11.3	2	5	270	0.00	29.802 
07:15	17.2	17.2	17.2	76	11.0	3	5	270	0.00	29.803 
07:20	16.9	16.9	16.9	76	10.7	3	9	270	0.00	29.804 
07:25	16.9	16.9	16.9	75	10.4	2	6	270	0.00	29.805 
07:30	16.7	16.7	16.7	75	10.2	2	11	292	0.00	29.809 
07:35	16.7	16.7	16.7	74	9.9	3	7	270	0.00	29.813 
07:40	16.5	16.5	16.5	73	9.4	2	4	270	0.00	29.811 
07:45	16.5	16.5	16.5	72	9.1	2	3	270	0.00	29.811 
07:50	16.5	16.5	16.5	71	8.8	2	7	270	0.00	29.814 
07:55	16.4	16.4	16.4	70	8.4	2	4	270	0.00	29.816 
08:00	16.4	16.4	16.4	70	8.4	2	5	270	0.00	29.820 
08:05	16.4	16.4	16.4	70	8.4	2	4	270	0.00	29.821 
08:10	16.4	16.4	16.4	70	8.4	2	6	270	0.00	29.821 
08:15	16.4	16.4	16.4	70	8.4	2	4	270	0.00	29.822 
08:20	16.4	16.4	16.4	70	8.4	2	4	270	0.00	29.822 
08:25	16.4	16.4	16.4	70	8.4	3	7	270	0.00	29.824 
08:30	16.4	16.4	16.4	70	8.4	2	6	270	0.00	29.824 
08:35	16.4	16.4	16.4	70	8.4	2	4	270	0.00	29.825 
08:40	16.4	16.4	16.4	70	8.4	2	4	270	0.00	29.832 
08:45	16.4	16.4	16.4	70	8.4	1	3	270	0.00	29.833 
08:50	16.4	16.4	16.4	70	8.4	2	3	270	0.00	29.834 
08:55	16.4	16.4	16.4	70	8.4	2	4	270	0.00	29.833 
09:00	16.4	16.4	16.4	69	8.0	3	7	270	0.00	29.834 
09:05	16.4	16.4	16.4	69	8.0	2	6	270	0.00	29.832 
09:10	16.5	16.5	16.5	69	8.1	2	5	270	0.00	29.833 
09:15	16.4	16.4	16.4	68	7.7	3	6	270	0.00	29.833 
09:20	16.4	16.4	16.4	67	7.4	3	7	270	0.00	29.837 
09:25	16.4	16.4	16.4	68	7.7	2	7	270	0.00	29.837 
09:30	16.5	16.5	16.5	67	7.5	3	7	270	0.00	29.837 
09:35	16.5	16.5	16.5	67	7.5	3	5	270	0.00	29.837 
09:40	16.5	16.5	16.5	67	7.5	3	6	270	0.00	29.835 
09:45	16.4	16.4	16.4	67	7.4	3	7	270	0.00	29.835 
09:50	16.2	16.2	16.2	67	7.2	3	6	270	0.00	29.835 
09:55	16.2	16.2	16.2	66	6.9	2	5	270	0.00	29.834 
10:00	16.1	16.1	16.1	66	6.8	2	9	270	0.00	29.834 
10:05	16.2	16.2	16.2	66	6.9	2	5	270	0.00	29.838 
10:10	16.2	16.2	16.2	65	6.5	3	10	270	0.00	29.838 
10:15	16.2	16.2	16.2	65	6.5	3	6	270	0.00	29.840 
10:20	16.2	16.2	16.2	64	6.2	3	7	270	0.00	29.841 
10:25	16.4	16.4	16.4	64	6.4	2	5	270	0.00	29.842 
10:30	16.5	16.5	16.5	64	6.5	2	6	248	0.00	29.840 
10:35	16.5	16.5	16.5	63	6.1	3	6	270	0.00	29.840 
10:40	16.7	16.7	16.7	63	6.3	2	3	292	0.00	29.840 
10:45	16.9	16.9	16.9	62	6.2	3	7	270	0.00	29.840 
10:50	16.7	16.7	16.7	62	6.0	2	8	248	0.00	29.841 
10:55	16.9	16.9	16.9	62	6.2	2	4	270	0.00	29.841 
11:00	16.9	16.9	16.9	61	5.8	3	9	270	0.00	29.842 
11:05	16.9	16.9	16.9	61	5.8	3	7	248	0.00	29.843 
11:10	16.9	16.9	16.9	61	5.8	3	8	248	0.00	29.842 
11:15	17.0	17.0	17.0	61	5.9	2	4	270	0.00	29.845 
11:20	17.2	17.2	17.2	60	5.7	3	7	270	0.00	29.846 
11:25	17.2	17.2	17.2	60	5.7	3	6	270	0.00	29.844 
11:30	17.3	17.3	17.3	60	5.8	2	5	248	0.00	29.841 
11:35	17.5	17.5	17.5	60	6.0	2	5	270	0.00	29.841 
11:40	18.0	18.0	18.0	60	6.5	2	4	248	0.00	29.840 
11:45	18.1	18.1	18.1	59	6.2	2	5	248	0.00	29.837 
11:50	18.3	18.3	18.3	59	6.4	2	5	270	0.00	29.831 
11:55	18.4	18.4	18.4	58	6.1	2	6	248	0.00	29.827 
12:00	18.1	18.1	18.1	58	5.8	2	5	270	0.00	29.824 
12:05	18.1	18.1	18.1	58	5.8	3	9	270	0.00	29.824 
12:10	18.0	18.0	18.0	58	5.7	2	7	270	0.00	29.823 
12:15	17.8	11.7	17.8	58	5.6	4	8	248	0.00	29.822 
12:20	17.8	11.7	17.8	58	5.6	4	9	270	0.00	29.819 
12:25	17.8	17.8	17.8	58	5.6	3	6	248	0.00	29.816 
12:30	17.8	17.8	17.8	58	5.6	3	5	270	0.00	29.812 
12:35	18.0	18.0	18.0	57	5.4	2	4	270	0.00	29.811 
12:40	18.3	18.3	18.3	57	5.7	2	6	270	0.00	29.810 
12:45	18.0	18.0	18.0	57	5.4	3	9	248	0.00	29.808 
12:50	18.0	18.0	18.0	57	5.4	3	9	270	0.00	29.807 
12:55	18.0	18.0	18.0	56	5.0	3	9	248	0.00	29.807 
13:00	18.1	18.1	18.1	57	5.5	2	5	270	0.00	29.807 
13:05	18.3	18.3	18.3	57	5.7	2	6	270	0.00	29.806 
13:10	18.4	18.4	18.4	58	6.1	2	5	270	0.00	29.804 
13:15	18.6	18.6	18.6	56	5.5	2	6	270	0.00	29.798 
13:20	18.8	18.8	18.8	56	5.7	2	6	270	0.00	29.799 
13:25	18.6	18.6	18.6	55	5.2	2	6	270	0.00	29.796 
13:30	18.6	18.6	18.6	56	5.5	2	6	270	0.00	29.796 
13:35	18.6	18.6	18.6	54	4.8	2	6	270	0.00	29.795 
13:40	18.4	18.4	18.4	54	4.6	3	9	270	0.00	29.792 
13:45	18.4	18.4	18.4	56	5.4	3	5	270	0.00	29.792 
13:50	18.6	18.6	18.6	56	5.5	2	5	270	0.00	29.791 
13:55	18.6	18.6	18.6	56	5.5	2	6	270	0.00	29.790 
14:00	18.6	18.6	18.6	56	5.5	2	4	270	0.00	29.790 
14:05	18.8	18.8	18.8	55	5.3	2	4	292	0.00	29.789 
14:10	18.9	18.9	18.9	56	5.8	2	4	248	0.00	29.791 
14:15	19.1	19.1	19.1	56	6.0	2	5	270	0.00	29.790 
14:20	18.9	18.9	18.9	56	5.8	3	11	248	0.00	29.791 
14:25	18.8	18.8	18.8	56	5.7	2	6	248	0.00	29.791 
14:30	18.9	18.9	18.9	57	6.2	3	6	270	0.00	29.792 
14:35	18.6	18.6	18.6	57	5.9	3	9	270	0.00	29.793 
14:40	18.4	18.4	18.4	57	5.7	3	7	270	0.00	29.793 
14:45	18.4	18.4	18.4	56	5.4	3	12	270	0.00	29.794 
14:50	18.1	18.1	18.1	56	5.1	3	7	270	0.00	29.795 
14:55	18.0	18.0	18.0	56	5.0	3	7	270	0.00	29.797 
15:00	18.0	11.9	18.0	56	5.0	4	10	270	0.00	29.796 
15:05	18.0	18.0	18.0	57	5.4	3	10	248	0.00	29.799 
15:10	18.1	18.1	18.1	57	5.5	2	5	248	0.00	29.803 
15:15	18.1	18.1	18.1	57	5.5	2	4	270	0.00	29.803 
15:20	18.1	18.1	18.1	56	5.1	3	7	270	0.00	29.805 
15:25	18.0	18.0	18.0	56	5.0	3	9	270	0.00	29.804 
15:30	17.8	17.8	17.8	57	5.2	3	8	270	0.00	29.805 
15:35	17.8	17.8	17.8	57	5.2	3	9	270	0.00	29.807 
15:40	17.8	17.8	17.8	57	5.2	3	9	270	0.00	29.809 
15:45	18.0	18.0	18.0	57	5.4	2	4	292	0.00	29.809 
15:50	18.0	18.0	18.0	58	5.7	2	3	248	0.00	29.810 
15:55	18.0	18.0	18.0	57	5.4	2	4	270	0.00	29.810 
16:00	17.8	17.8	17.8	57	5.2	3	6	270	0.00	29.811 
16:05	17.8	17.8	17.8	57	5.2	2	4	270	0.00	29.813 
16:10	17.8	17.8	17.8	58	5.6	2	7	270	0.00	29.813 
16:15	17.8	17.8	17.8	57	5.2	2	6	248	0.00	29.813 
16:20	17.7	17.7	17.7	57	5.1	3	5	270	0.00	29.813 
16:25	17.5	17.5	17.5	57	4.9	3	6	270	0.00	29.813 
16:30	17.3	17.3	17.3	58	5.1	2	5	270	0.00	29.816 
16:35	17.2	17.2	17.2	58	5.0	2	6	270	0.00	29.816 
16:40	17.0	17.0	17.0	58	4.8	2	6	248	0.00	29.813 
16:45	16.9	16.9	16.9	59	5.1	1	5	248	0.00	29.813 
16:50	16.9	16.9	16.9	59	5.1	3	7	248	0.00	29.813 
16:55	16.5	16.5	16.5	59	4.7	3	7	248	0.00	29.814 
17:00	16.4	16.4	16.4	60	5.0	2	5	248	0.00	29.815 
17:05	16.2	16.2	16.2	61	5.1	2	6	248	0.00	29.817 
17:10	16.1	16.1	16.1	61	5.1	2	5	270	0.00	29.817 
17:15	15.9	15.9	15.9	61	4.9	1	5	248	0.00	29.818 
17:20	15.6	15.6	15.6	62	4.9	1	4	248	0.00	29.819 
17:25	15.4	15.4	15.4	62	4.7	1	4	248	0.00	29.820 
17:30	15.2	15.2	15.2	62	4.6	0	2	270	0.00	29.823 
17:35	14.9	14.9	14.9	62	4.3	0	2	270	0.00	29.827 
17:40	14.8	14.8	14.8	63	4.5	1	3	248	0.00	29.830 
17:45	14.6	14.6	14.6	64	4.7	1	3	270	0.00	29.831 
17:50	14.4	14.4	14.4	64	4.5	0	3	270	0.00	29.833 
17:55	14.3	14.3	14.3	64	4.4	0	2	270	0.00	29.833 
18:00	14.1	14.1	14.1	65	4.5	0	3	248	0.00	29.834 
18:05	14.0	14.0	14.0	65	4.4	0	3	248	0.00	29.834 
18:10	13.8	13.8	13.8	65	4.2	0	1	248	0.00	29.834 
18:15	13.6	13.6	13.6	65	4.1	0	1	248	0.00	29.836 
18:20	13.5	13.5	13.5	66	4.3	0	1	248	0.00	29.836 
18:25	13.5	13.5	13.5	66	4.3	0	1	248	0.00	29.840 
18:30	13.3	13.3	13.3	66	4.1	0	2	248	0.00	29.845 
18:35	13.1	13.1	13.1	66	3.9	0	1	248	0.00	29.847 
18:40	12.8	12.8	12.8	67	3.9	0	2	248	0.00	29.849 
18:45	12.6	12.6	12.6	67	3.8	0	1	248	0.00	29.849 
18:50	12.6	12.6	12.6	68	4.1	0	1	248	0.00	29.851 
18:55	12.4	12.4	12.4	68	3.9	0	2	248	0.00	29.853 
19:00	12.3	12.3	12.3	69	4.1	0	2	248	0.00	29.856 
19:05	12.3	12.3	12.3	69	4.1	0	1	248	0.00	29.860 
19:10	12.3	12.3	12.3	69	4.1	0	2	248	0.00	29.859 
19:15	12.3	12.3	12.3	69	4.1	0	1	248	0.00	29.858 
19:20	12.3	12.3	12.3	69	4.1	0	3	248	0.00	29.856 
19:25	12.1	12.1	12.1	70	4.2	0	1	248	0.00	29.857 
19:30	11.9	11.9	11.9	70	4.0	0	1	248	0.00	29.859 
19:35	11.9	11.9	11.9	70	4.0	0	1	248	0.00	29.860 
19:40	11.7	11.7	11.7	71	4.1	0	2	248	0.00	29.856 
19:45	11.7	11.7	11.7	71	4.1	0	2	248	0.00	29.856 
19:50	11.7	11.7	11.7	72	4.4	0	1	248	0.00	29.854 
19:55	11.7	11.7	11.7	72	4.4	0	1	248	0.00	29.853 
20:00	11.7	11.7	11.7	72	4.4	0	2	248	0.00	29.853 
20:05	11.6	11.6	11.6	72	4.4	0	2	248	0.00	29.854 
20:10	11.6	11.6	11.6	72	4.4	0	1	248	0.00	29.852 
20:15	11.6	11.6	11.6	73	4.7	0	2	248	0.00	29.852 
20:20	11.6	11.6	11.6	73	4.7	1	3	248	0.00	29.852 
20:25	11.6	11.6	11.6	73	4.7	0	2	248	0.00	29.852 
20:30	11.6	11.6	11.6	73	4.7	1	2	248	0.00	29.849 
20:35	11.6	11.6	11.6	73	4.7	0	2	248	0.00	29.847 
20:40	11.6	11.6	11.6	73	4.7	0	2	248	0.00	29.848 
20:45	11.7	11.7	11.7	73	4.7	1	2	248	0.00	29.846 
20:50	11.7	11.7	11.7	73	4.7	0	2	248	0.00	29.841 
20:55	11.9	11.9	11.9	73	4.9	0	3	248	0.00	29.840 
21:00	11.9	11.9	11.9	73	4.9	1	3	248	0.00	29.840 
21:05	12.1	12.1	12.1	73	5.1	1	2	248	0.00	29.838 
21:10	12.1	12.1	12.1	73	5.1	1	3	248	0.00	29.837 
21:15	12.3	12.3	12.3	73	5.3	1	3	248	0.00	29.837 
21:20	12.4	12.4	12.4	73	5.4	1	4	248	0.00	29.836 
21:25	12.4	12.4	12.4	73	5.4	0	2	248	0.00	29.837 
21:30	12.4	12.4	12.4	73	5.4	0	2	248	0.00	29.837 
21:35	12.6	12.6	12.6	73	5.6	1	3	248	0.00	29.835 
21:40	12.6	12.6	12.6	73	5.6	0	2	248	0.00	29.833 
21:45	12.6	12.6	12.6	73	5.6	1	4	248	0.00	29.832 
21:50	12.6	12.6	12.6	73	5.6	1	3	248	0.00	29.830 
21:55	12.8	12.8	12.8	73	5.8	1	3	248	0.00	29.830 
22:00	12.8	12.8	12.8	73	5.8	1	3	248	0.00	29.828 
22:05	12.8	12.8	12.8	73	5.8	1	3	248	0.00	29.825 
22:10	12.8	12.8	12.8	73	5.8	0	2	248	0.00	29.824 
22:15	12.8	12.8	12.8	73	5.8	0	2	248	0.00	29.825 
22:20	12.8	12.8	12.8	73	5.8	0	3	248	0.00	29.825 
22:25	12.8	12.8	12.8	73	5.8	0	2	248	0.00	29.826 
22:30	12.8	12.8	12.8	73	5.8	0	3	248	0.00	29.829 
22:35	12.6	12.6	12.6	73	5.6	0	3	248	0.00	29.827 
22:40	12.6	12.6	12.6	73	5.6	0	1	248	0.00	29.827 
22:45	12.6	12.6	12.6	73	5.6	0	2	248	0.00	29.830 
22:50	12.6	12.6	12.6	73	5.6	0	2	248	0.00	29.826 
22:55	12.6	12.6	12.6	73	5.6	0	2	248	0.00	29.823 
23:00	12.4	12.4	12.4	73	5.4	0	2	248	0.00	29.826 
23:05	12.4	12.4	12.4	73	5.4	0	1	248	0.00	29.823 
23:10	12.4	12.4	12.4	73	5.4	0	2	248	0.00	29.821 
23:15	12.3	12.3	12.3	73	5.3	0	2	248	0.00	29.820 
23:20	12.1	12.1	12.1	73	5.1	0	3	248	0.00	29.819 
23:25	12.1	12.1	12.1	73	5.1	0	4	248	0.00	29.818 
23:30	12.1	12.1	12.1	73	5.1	0	3	248	0.00	29.817 
23:35	11.9	11.9	11.9	73	4.9	0	1	248	0.00	29.818 
23:40	11.9	11.9	11.9	73	4.9	0	2	248	0.00	29.817 
23:45	11.9	11.9	11.9	73	4.9	0	2	248	0.00	29.815 
23:50	11.9	11.9	11.9	73	4.9	0	1	248	0.00	29.814 
23:55	11.7	11.7	11.7	74	5.0	0	2	248	0.00	29.815 

CoCoRaHS
IN-AL-39
A2 Web Hosting
Creative Commons License
GoDaddy
search engine by freefind advanced

loaded 2018-11-20 03:13:41 • last modified 2010-11-18 10:43:29
Privacy PolicyDisclaimer
• wx.awcolley.com is powered by PmWiki v.2002016 •
• all content (unless otherwise noted) © 2018 A W Colley